createdAt,value
2022-10-17T00:00:39.330Z,7.08
2022-10-17T00:03:07.885Z,7.32
2022-10-17T00:05:40.978Z,7.21
2022-10-17T00:08:09.808Z,7.35
2022-10-17T00:10:38.519Z,7.27
2022-10-17T00:13:07.492Z,6.98
2022-10-17T00:15:36.194Z,7.30
2022-10-17T00:18:06.160Z,7.04
2022-10-17T00:20:36.448Z,7.16
2022-10-17T00:23:04.928Z,6.91
2022-10-17T00:25:33.295Z,6.98
2022-10-17T00:28:01.757Z,7.09
2022-10-17T00:30:30.267Z,7.09
2022-10-17T00:32:58.711Z,7.08
2022-10-17T00:35:28.595Z,6.76
2022-10-17T00:37:57.074Z,6.90
2022-10-17T00:40:26.127Z,7.09
2022-10-17T00:42:54.552Z,7.14
2022-10-17T00:45:25.042Z,7.04
2022-10-17T00:48:02.234Z,7.21
2022-10-17T00:50:33.182Z,6.82
2022-10-17T00:53:05.638Z,6.99
2022-10-17T00:55:39.499Z,6.76
2022-10-17T00:58:08.228Z,6.69
2022-10-17T01:00:37.345Z,6.58
2022-10-17T01:03:06.340Z,6.83
2022-10-17T01:05:39.009Z,7.18
2022-10-17T01:08:08.328Z,6.63
2022-10-17T01:10:46.074Z,6.78
2022-10-17T01:13:20.979Z,6.99
2022-10-17T01:16:01.258Z,7.48
2022-10-17T01:18:41.731Z,7.54
2022-10-17T01:21:32.096Z,6.85
2022-10-17T01:24:30.396Z,6.85
2022-10-17T01:27:27.831Z,7.10
2022-10-17T01:30:30.911Z,7.20
2022-10-17T01:33:10.540Z,6.76
2022-10-17T01:35:43.410Z,7.06
2022-10-17T01:38:15.440Z,6.84
2022-10-17T01:40:50.696Z,7.46
2022-10-17T01:43:25.005Z,6.97
2022-10-17T01:45:59.014Z,7.08
2022-10-17T01:48:35.222Z,6.80
2022-10-17T01:51:10.009Z,7.05
2022-10-17T01:53:46.007Z,6.78
2022-10-17T01:56:15.938Z,7.01
2022-10-17T01:58:50.394Z,6.79
2022-10-17T02:01:22.485Z,6.80
2022-10-17T02:03:55.556Z,7.17
2022-10-17T02:06:25.598Z,7.24
2022-10-17T02:08:54.085Z,7.03
2022-10-17T02:11:25.547Z,7.00
2022-10-17T02:14:15.944Z,6.79
2022-10-17T02:16:53.179Z,6.91
2022-10-17T02:19:51.518Z,6.84
2022-10-17T02:22:31.468Z,7.01
2022-10-17T02:25:07.641Z,7.06
2022-10-17T02:27:44.972Z,6.87
2022-10-17T02:30:22.479Z,7.33
2022-10-17T02:32:56.890Z,6.64
2022-10-17T02:35:31.781Z,6.87
2022-10-17T02:38:02.196Z,6.72
2022-10-17T02:40:32.601Z,7.06
2022-10-17T02:43:04.149Z,6.81
2022-10-17T02:45:36.217Z,6.93
2022-10-17T02:48:10.144Z,6.61
2022-10-17T02:50:50.400Z,6.42
2022-10-17T02:53:26.599Z,6.87
2022-10-17T02:55:59.238Z,6.70
2022-10-17T02:58:32.961Z,6.52
2022-10-17T03:01:03.516Z,7.00
2022-10-17T03:03:33.401Z,7.21
2022-10-17T03:06:07.101Z,6.90
2022-10-17T03:08:35.726Z,7.00
2022-10-17T03:11:04.773Z,6.89
2022-10-17T03:13:36.287Z,6.71
2022-10-17T03:16:07.861Z,6.80
2022-10-17T03:18:39.287Z,6.99
2022-10-17T03:21:09.413Z,6.82
2022-10-17T03:23:40.021Z,7.21
2022-10-17T03:26:09.331Z,7.23
2022-10-17T03:28:38.532Z,7.14
2022-10-17T03:31:11.511Z,6.81
2022-10-17T03:33:40.928Z,6.96
2022-10-17T03:36:12.805Z,7.30
2022-10-17T03:38:41.898Z,7.08
2022-10-17T03:41:10.878Z,7.28
2022-10-17T03:43:41.103Z,7.23
2022-10-17T03:46:10.544Z,7.36
2022-10-17T03:48:39.841Z,6.81
2022-10-17T03:51:11.615Z,7.10
2022-10-17T03:53:49.145Z,6.62
2022-10-17T03:56:19.498Z,7.01
2022-10-17T03:58:55.833Z,7.33
2022-10-17T04:01:25.473Z,7.61
2022-10-17T04:03:56.498Z,7.03
2022-10-17T04:06:28.035Z,7.40
2022-10-17T04:08:56.646Z,7.33
2022-10-17T04:11:34.492Z,6.80
2022-10-17T04:14:04.463Z,7.22
2022-10-17T04:16:33.642Z,7.04
2022-10-17T04:19:06.047Z,7.04
2022-10-17T04:21:42.838Z,7.39
2022-10-17T04:24:13.350Z,7.19
2022-10-17T04:26:56.667Z,7.00
2022-10-17T04:29:29.043Z,7.25
2022-10-17T04:32:29.267Z,7.39
2022-10-17T04:35:06.576Z,7.21
2022-10-17T04:37:36.733Z,7.38
2022-10-17T04:40:12.406Z,7.33
2022-10-17T04:42:40.998Z,7.09
2022-10-17T04:45:12.134Z,7.52
2022-10-17T04:47:42.061Z,7.61
2022-10-17T04:50:11.041Z,7.48
2022-10-17T04:52:43.281Z,7.61
2022-10-17T04:55:11.883Z,7.74
2022-10-17T04:57:40.857Z,7.52
2022-10-17T05:00:21.686Z,8.03
2022-10-17T05:03:07.324Z,8.07
2022-10-17T05:05:41.559Z,8.28
2022-10-17T05:08:13.112Z,8.23
2022-10-17T05:10:43.957Z,8.28
2022-10-17T05:13:12.709Z,8.34
2022-10-17T05:15:42.280Z,8.29
2022-10-17T05:18:11.224Z,8.11
2022-10-17T05:20:39.418Z,8.27
2022-10-17T05:23:08.614Z,8.50
2022-10-17T05:25:42.974Z,8.48
2022-10-17T05:28:11.460Z,8.28
2022-10-17T05:30:42.436Z,8.46
2022-10-17T05:33:11.727Z,8.96
2022-10-17T05:35:41.771Z,8.34
2022-10-17T05:38:10.448Z,8.19
2022-10-17T05:40:42.554Z,8.23
2022-10-17T05:43:11.183Z,8.22
2022-10-17T05:45:39.697Z,8.24
2022-10-17T05:48:11.384Z,7.99
2022-10-17T05:50:40.052Z,8.38
2022-10-17T05:53:17.227Z,7.98
2022-10-17T05:56:02.240Z,8.48
2022-10-17T05:58:49.647Z,7.94
2022-10-17T06:01:30.832Z,8.47
2022-10-17T06:03:59.918Z,8.26
2022-10-17T06:06:28.475Z,8.64
2022-10-17T06:08:59.640Z,8.67
2022-10-17T06:11:34.527Z,9.28
2022-10-17T06:14:03.655Z,9.05
2022-10-17T06:16:34.730Z,8.85
2022-10-17T06:19:03.284Z,9.06
2022-10-17T06:21:34.859Z,8.83
2022-10-17T06:24:09.345Z,8.90
2022-10-17T06:26:43.465Z,9.21
2022-10-17T06:29:14.691Z,9.95
2022-10-17T06:32:02.715Z,9.65
2022-10-17T06:34:37.045Z,9.59
2022-10-17T06:37:05.734Z,10.16
2022-10-17T06:39:38.932Z,10.03
2022-10-17T06:42:13.842Z,10.49
2022-10-17T06:45:09.928Z,9.64
2022-10-17T06:48:04.620Z,9.46
2022-10-17T06:50:44.988Z,9.49
2022-10-17T06:53:27.350Z,9.20
2022-10-17T06:56:31.282Z,9.23
2022-10-17T06:59:19.991Z,9.17
2022-10-17T07:02:03.671Z,9.43
2022-10-17T07:04:32.444Z,9.82
2022-10-17T07:07:03.330Z,10.01
2022-10-17T07:09:34.292Z,10.18
2022-10-17T07:12:02.495Z,10.50
2022-10-17T07:14:33.168Z,10.21
2022-10-17T07:17:02.584Z,9.58
2022-10-17T07:19:33.415Z,9.77
2022-10-17T07:22:01.947Z,10.06
2022-10-17T07:24:31.747Z,10.62
2022-10-17T07:27:09.200Z,11.15
2022-10-17T07:29:39.459Z,10.36
2022-10-17T07:32:20.578Z,10.15
2022-10-17T07:34:49.440Z,10.75
2022-10-17T07:37:17.909Z,10.77
2022-10-17T07:39:53.545Z,10.56
2022-10-17T07:42:22.038Z,10.22
2022-10-17T07:44:52.882Z,10.11
2022-10-17T07:47:22.495Z,11.49
2022-10-17T07:49:52.000Z,10.75
2022-10-17T07:52:20.492Z,10.57
2022-10-17T07:54:48.891Z,10.64
2022-10-17T07:57:17.324Z,10.31
2022-10-17T07:59:45.772Z,10.91
2022-10-17T08:02:20.123Z,11.19
2022-10-17T08:04:48.604Z,11.10
2022-10-17T08:07:24.128Z,10.92
2022-10-17T08:09:58.504Z,10.98
2022-10-17T08:12:27.623Z,11.13
2022-10-17T08:14:56.563Z,10.87
2022-10-17T08:17:26.366Z,10.89
2022-10-17T08:19:54.971Z,10.69
2022-10-17T08:22:23.548Z,10.61
2022-10-17T08:24:52.108Z,10.71
2022-10-17T08:27:24.376Z,10.63
2022-10-17T08:29:54.364Z,10.74
2022-10-17T08:32:25.074Z,10.94
2022-10-17T08:34:55.692Z,10.74
2022-10-17T08:37:24.627Z,10.76
2022-10-17T08:39:52.719Z,10.51
2022-10-17T08:42:42.304Z,9.77
2022-10-17T08:45:18.133Z,9.82
2022-10-17T08:47:48.827Z,9.24
2022-10-17T08:50:28.667Z,9.38
2022-10-17T08:53:01.409Z,9.54
2022-10-17T08:55:34.700Z,9.54
2022-10-17T08:58:03.378Z,9.23
2022-10-17T09:00:33.631Z,9.31
2022-10-17T09:03:17.391Z,9.49
2022-10-17T09:05:54.576Z,9.63
2022-10-17T09:08:35.454Z,9.96
2022-10-17T09:11:15.757Z,9.86
2022-10-17T09:13:58.114Z,9.69
2022-10-17T09:16:55.848Z,9.93
2022-10-17T09:19:29.716Z,10.01
2022-10-17T09:22:02.908Z,9.97
2022-10-17T09:24:40.879Z,9.67
2022-10-17T09:27:16.886Z,10.02
2022-10-17T09:29:50.204Z,9.49
2022-10-17T09:32:23.528Z,9.30
2022-10-17T09:34:53.196Z,8.92
2022-10-17T09:37:31.351Z,8.97
2022-10-17T09:39:59.800Z,8.94
2022-10-17T09:42:29.090Z,8.83
2022-10-17T09:45:13.175Z,8.76
2022-10-17T09:47:47.704Z,8.67
2022-10-17T09:50:23.127Z,8.72
2022-10-17T09:52:54.697Z,8.81
2022-10-17T09:55:32.910Z,8.91
2022-10-17T09:58:03.437Z,8.96
2022-10-17T10:00:33.597Z,9.48
2022-10-17T10:03:20.070Z,10.08
2022-10-17T10:06:03.961Z,9.27
2022-10-17T10:08:36.271Z,9.50
2022-10-17T10:11:07.875Z,9.07
2022-10-17T10:13:40.386Z,9.32
2022-10-17T10:16:19.238Z,9.45
2022-10-17T10:18:50.161Z,9.75
2022-10-17T10:21:22.557Z,9.34
2022-10-17T10:24:14.639Z,9.07
2022-10-17T10:26:47.139Z,8.94
2022-10-17T10:29:31.155Z,8.97
2022-10-17T10:32:10.439Z,9.31
2022-10-17T10:34:45.540Z,9.44
2022-10-17T10:37:21.420Z,9.69
2022-10-17T10:39:53.403Z,9.61
2022-10-17T10:42:28.881Z,9.62
2022-10-17T10:45:03.038Z,9.58
2022-10-17T10:47:34.076Z,9.48
2022-10-17T10:50:24.709Z,8.96
2022-10-17T10:53:11.430Z,9.63
2022-10-17T10:55:46.233Z,9.79
2022-10-17T10:58:27.713Z,9.68
2022-10-17T11:00:57.885Z,9.51
2022-10-17T11:03:33.820Z,9.45
2022-10-17T11:06:06.593Z,9.61
2022-10-17T11:08:39.974Z,9.20
2022-10-17T11:11:18.383Z,8.87
2022-10-17T11:13:54.067Z,9.24
2022-10-17T11:16:34.766Z,9.21
2022-10-17T11:19:13.842Z,8.99
2022-10-17T11:21:48.957Z,9.24
2022-10-17T11:24:25.187Z,9.14
2022-10-17T11:27:00.098Z,9.28
2022-10-17T11:29:31.267Z,9.12
2022-10-17T11:32:03.349Z,9.52
2022-10-17T11:34:37.806Z,9.78
2022-10-17T11:37:15.200Z,9.90
2022-10-17T11:39:49.570Z,9.21
2022-10-17T11:42:25.135Z,9.61
2022-10-17T11:45:03.207Z,9.92
2022-10-17T11:47:38.699Z,9.63
2022-10-17T11:53:14.725Z,9.97
2022-10-17T11:55:44.778Z,9.89
2022-10-17T11:58:31.099Z,9.97
2022-10-17T12:01:09.149Z,9.90
2022-10-17T12:03:54.159Z,10.37
2022-10-17T12:06:33.611Z,9.61
2022-10-17T12:09:08.567Z,9.30
2022-10-17T12:11:46.734Z,9.69
2022-10-17T12:14:45.206Z,10.03
2022-10-17T12:17:35.640Z,9.68
2022-10-17T12:20:28.645Z,10.06
2022-10-17T12:23:00.760Z,10.21
2022-10-17T12:25:33.841Z,9.69
2022-10-17T12:28:14.514Z,9.38
2022-10-17T12:31:03.527Z,9.52
2022-10-17T12:33:36.159Z,9.61
2022-10-17T12:36:47.444Z,9.77
2022-10-17T12:39:44.099Z,10.06
2022-10-17T12:42:51.579Z,9.82
2022-10-17T12:45:51.547Z,10.02
2022-10-17T12:48:59.702Z,10.19
2022-10-17T12:51:35.706Z,10.21
2022-10-17T12:54:13.198Z,9.77
2022-10-17T12:56:43.880Z,10.24
2022-10-17T12:59:17.202Z,10.23
2022-10-17T13:01:48.817Z,9.69
2022-10-17T13:04:18.936Z,9.96
2022-10-17T13:06:51.255Z,10.06
2022-10-17T13:09:27.164Z,10.30
2022-10-17T13:11:58.364Z,10.30
2022-10-17T13:14:28.280Z,9.96
2022-10-17T13:16:58.617Z,10.33
2022-10-17T13:19:31.600Z,10.35
2022-10-17T13:22:06.784Z,10.44
2022-10-17T13:24:37.677Z,10.68
2022-10-17T13:27:07.410Z,10.44
2022-10-17T13:29:35.910Z,10.60
2022-10-17T13:32:06.812Z,10.29
2022-10-17T13:34:37.460Z,10.28
2022-10-17T13:37:09.768Z,10.86
2022-10-17T13:39:54.808Z,11.04
2022-10-17T13:42:28.025Z,10.64
2022-10-17T13:44:57.540Z,10.72
2022-10-17T13:47:29.436Z,10.63
2022-10-17T13:49:59.222Z,10.55
2022-10-17T13:52:31.197Z,10.58
2022-10-17T13:55:11.797Z,10.26
2022-10-17T13:57:42.923Z,9.98
2022-10-17T14:00:20.283Z,10.17
2022-10-17T14:02:49.606Z,9.87
2022-10-17T14:05:20.726Z,10.06
2022-10-17T14:08:13.044Z,10.61
2022-10-17T14:10:46.344Z,10.16
2022-10-17T14:13:23.448Z,9.94
2022-10-17T14:15:54.007Z,9.81
2022-10-17T14:18:26.349Z,10.09
2022-10-17T14:23:46.162Z,10.08
2022-10-17T14:26:17.308Z,10.41
2022-10-17T14:28:49.564Z,10.21
2022-10-17T14:31:32.374Z,10.28
2022-10-17T14:34:02.982Z,9.97
2022-10-17T14:36:34.534Z,10.01
2022-10-17T14:39:04.835Z,10.08
2022-10-17T14:41:44.687Z,9.88
2022-10-17T14:44:22.055Z,10.08
2022-10-17T14:46:54.392Z,9.82
2022-10-17T14:49:28.057Z,9.72
2022-10-17T14:52:27.480Z,9.40
2022-10-17T14:54:58.683Z,9.76
2022-10-17T14:57:31.125Z,9.38
2022-10-17T14:59:59.856Z,9.24
2022-10-17T15:02:31.691Z,9.31
2022-10-17T15:05:00.277Z,9.06
2022-10-17T15:07:29.608Z,9.53
2022-10-17T15:09:59.540Z,9.53
2022-10-17T15:12:28.424Z,9.50
2022-10-17T15:14:56.968Z,9.57
2022-10-17T15:17:27.567Z,9.87
2022-10-17T15:19:56.813Z,10.10
2022-10-17T15:22:25.952Z,9.89
2022-10-17T15:24:54.508Z,10.24
2022-10-17T15:27:26.510Z,10.06
2022-10-17T15:29:55.744Z,9.96
2022-10-17T15:32:24.931Z,9.88
2022-10-17T15:34:53.408Z,10.17
2022-10-17T15:37:23.564Z,9.85
2022-10-17T15:39:54.634Z,10.02
2022-10-17T15:42:29.496Z,9.98
2022-10-17T15:45:01.359Z,9.93
2022-10-17T15:47:34.570Z,10.11
2022-10-17T15:50:04.020Z,10.03
2022-10-17T15:52:32.813Z,10.55
2022-10-17T15:55:04.287Z,10.40
2022-10-17T15:57:39.310Z,10.16
2022-10-17T16:00:16.675Z,10.00
2022-10-17T16:02:45.922Z,10.24
2022-10-17T16:05:17.425Z,10.45
2022-10-17T16:07:46.978Z,10.44
2022-10-17T16:10:15.781Z,10.40
2022-10-17T16:12:45.982Z,10.55
2022-10-17T16:15:18.852Z,10.37
2022-10-17T16:17:47.595Z,10.40
2022-10-17T16:20:16.634Z,10.46
2022-10-17T16:22:45.980Z,10.28
2022-10-17T16:25:27.008Z,10.51
2022-10-17T16:27:58.944Z,10.26
2022-10-17T16:30:30.482Z,10.61
2022-10-17T16:32:59.170Z,10.52
2022-10-17T16:35:33.146Z,10.35
2022-10-17T16:38:06.421Z,10.52
2022-10-17T16:40:35.307Z,10.50
2022-10-17T16:43:05.120Z,10.16
2022-10-17T16:45:34.013Z,10.67
2022-10-17T16:48:02.454Z,10.77
2022-10-17T16:50:37.636Z,11.01
2022-10-17T16:53:07.788Z,10.52
2022-10-17T16:55:36.329Z,10.90
2022-10-17T16:58:08.439Z,10.30
2022-10-17T17:00:37.053Z,10.86
2022-10-17T17:03:05.700Z,10.92
2022-10-17T17:05:34.270Z,11.01
2022-10-17T17:08:03.990Z,10.96
2022-10-17T17:10:35.454Z,10.71
2022-10-17T17:13:05.746Z,11.14
2022-10-17T17:15:34.371Z,10.72
2022-10-17T17:18:05.453Z,11.11
2022-10-17T17:20:35.080Z,10.61
2022-10-17T17:23:03.388Z,11.46
2022-10-17T17:25:32.131Z,11.17
2022-10-17T17:28:01.223Z,11.14
2022-10-17T17:30:31.353Z,11.03
2022-10-17T17:33:00.707Z,11.05
2022-10-17T17:35:30.758Z,11.41
2022-10-17T17:37:59.471Z,11.77
2022-10-17T17:40:27.991Z,11.78
2022-10-17T17:42:58.773Z,11.66
2022-10-17T17:45:27.368Z,11.30
2022-10-17T17:47:57.859Z,11.62
2022-10-17T17:50:26.582Z,11.76
2022-10-17T17:52:56.676Z,11.86
2022-10-17T17:55:25.518Z,11.68
2022-10-17T17:57:54.156Z,11.98
2022-10-17T18:00:22.806Z,11.77
2022-10-17T18:02:51.491Z,11.80
2022-10-17T18:05:21.672Z,11.62
2022-10-17T18:07:50.495Z,11.39
2022-10-17T18:10:19.356Z,11.17
2022-10-17T18:12:47.850Z,11.58
2022-10-17T18:15:16.931Z,10.98
2022-10-17T18:17:45.765Z,10.95
2022-10-17T18:20:14.519Z,11.40
2022-10-17T18:22:45.035Z,11.40
2022-10-17T18:25:14.135Z,11.13
2022-10-17T18:27:42.941Z,11.20
2022-10-17T18:30:15.053Z,11.12
2022-10-17T18:32:44.153Z,11.00
2022-10-17T18:35:12.888Z,11.20
2022-10-17T18:40:16.837Z,11.14
2022-10-17T18:42:45.556Z,11.34
2022-10-17T18:45:14.477Z,10.93
2022-10-17T18:47:44.979Z,11.40
2022-10-17T18:50:13.806Z,11.46
2022-10-17T18:52:45.306Z,11.23
2022-10-17T18:55:16.031Z,11.04
2022-10-17T18:57:44.642Z,11.04
2022-10-17T19:00:14.489Z,11.20
2022-10-17T19:02:43.262Z,11.66
2022-10-17T19:05:11.660Z,12.25
2022-10-17T19:07:40.187Z,11.36
2022-10-17T19:10:10.843Z,11.88
2022-10-17T19:12:41.873Z,11.50
2022-10-17T19:15:10.722Z,11.53
2022-10-17T19:17:38.820Z,11.84
2022-10-17T19:20:08.657Z,11.79
2022-10-17T19:22:37.095Z,11.64
2022-10-17T19:25:06.038Z,11.71
2022-10-17T19:27:34.295Z,12.08
2022-10-17T19:30:04.380Z,11.72
2022-10-17T19:32:33.176Z,11.44
2022-10-17T19:35:01.877Z,11.50
2022-10-17T19:37:32.296Z,11.90
2022-10-17T19:40:01.288Z,11.60
2022-10-17T19:42:32.283Z,11.15
2022-10-17T19:45:01.125Z,11.19
2022-10-17T19:47:32.149Z,11.69
2022-10-17T19:50:00.833Z,11.77
2022-10-17T19:52:29.938Z,11.56
2022-10-17T19:54:58.911Z,11.39
2022-10-17T19:57:27.440Z,11.68
2022-10-17T19:59:56.370Z,11.58
2022-10-17T20:02:24.690Z,11.69
2022-10-17T20:05:17.173Z,11.75
2022-10-17T20:07:43.543Z,11.48
2022-10-17T20:10:12.189Z,11.16
2022-10-17T20:12:40.821Z,11.68
2022-10-17T20:15:09.741Z,11.39
2022-10-17T20:17:38.009Z,12.27
2022-10-17T20:20:10.124Z,11.50
2022-10-17T20:22:38.773Z,11.82
2022-10-17T20:25:10.817Z,11.65
2022-10-17T20:27:40.909Z,11.73
2022-10-17T20:30:10.318Z,11.57
2022-10-17T20:32:40.142Z,11.40
2022-10-17T20:35:10.946Z,11.86
2022-10-17T20:37:42.585Z,11.35
2022-10-17T20:43:01.184Z,11.75
2022-10-17T20:45:43.787Z,11.85
2022-10-17T20:48:18.112Z,11.91
2022-10-17T20:50:47.977Z,11.21
2022-10-17T20:53:36.169Z,11.61
2022-10-17T20:56:10.611Z,11.27
2022-10-17T20:58:39.620Z,11.49
2022-10-17T21:01:08.772Z,12.13
2022-10-17T21:03:42.384Z,11.68
2022-10-17T21:06:16.626Z,11.52
2022-10-17T21:08:45.907Z,11.53
2022-10-17T21:11:17.519Z,11.79
2022-10-17T21:13:46.989Z,11.72
2022-10-17T21:16:18.523Z,11.81
2022-10-17T21:18:47.294Z,11.59
2022-10-17T21:21:19.859Z,11.40
2022-10-17T21:23:50.513Z,11.72
2022-10-17T21:26:19.621Z,11.11
2022-10-17T21:28:50.133Z,11.10
2022-10-17T21:31:21.751Z,11.13
2022-10-17T21:33:52.259Z,11.36
2022-10-17T21:36:23.020Z,11.54
2022-10-17T21:38:53.615Z,11.62
2022-10-17T21:41:24.361Z,11.67
2022-10-17T21:43:54.638Z,11.78
2022-10-17T21:46:23.529Z,11.47
2022-10-17T21:48:52.864Z,11.44
2022-10-17T21:51:25.580Z,11.40
2022-10-17T21:53:55.879Z,11.00
2022-10-17T21:56:29.047Z,11.07
2022-10-17T21:58:58.593Z,11.16
2022-10-17T22:01:29.183Z,10.95
2022-10-17T22:04:00.148Z,11.13
2022-10-17T22:06:47.116Z,10.97
2022-10-17T22:09:17.442Z,10.69
2022-10-17T22:11:47.923Z,10.84
2022-10-17T22:14:18.833Z,10.89
2022-10-17T22:16:48.046Z,10.68
2022-10-17T22:19:20.031Z,10.85
2022-10-17T22:21:50.478Z,10.91
2022-10-17T22:26:50.345Z,10.94
2022-10-17T22:29:18.802Z,10.97
2022-10-17T22:31:47.387Z,10.91
2022-10-17T22:34:17.122Z,10.86
2022-10-17T22:36:47.797Z,10.82
2022-10-17T22:39:17.887Z,10.56
2022-10-17T22:41:46.367Z,10.51
2022-10-17T22:44:14.804Z,10.57
2022-10-17T22:46:43.326Z,10.41
2022-10-17T22:49:11.860Z,10.64
2022-10-17T22:51:40.250Z,10.63
2022-10-17T22:54:09.026Z,10.46
2022-10-17T22:56:38.805Z,10.19
2022-10-17T22:59:07.472Z,10.45
2022-10-17T23:01:35.879Z,10.57
2022-10-17T23:04:04.369Z,10.55
2022-10-17T23:06:33.090Z,10.29
2022-10-17T23:09:01.570Z,10.62
2022-10-17T23:11:30.015Z,10.55
2022-10-17T23:13:59.905Z,10.55
2022-10-17T23:16:28.338Z,10.55
2022-10-17T23:18:56.704Z,10.43
2022-10-17T23:21:25.077Z,10.34
2022-10-17T23:23:53.433Z,10.42
2022-10-17T23:26:21.853Z,10.50
2022-10-17T23:28:55.498Z,10.26
2022-10-17T23:31:25.434Z,10.61
2022-10-17T23:33:55.999Z,10.47
2022-10-17T23:36:27.456Z,10.43
2022-10-17T23:38:58.448Z,10.47
2022-10-17T23:41:27.367Z,10.71
2022-10-17T23:43:55.717Z,10.43
2022-10-17T23:46:25.659Z,10.45
2022-10-17T23:48:54.319Z,10.41
2022-10-17T23:51:23.020Z,10.48
2022-10-17T23:53:51.395Z,10.24
2022-10-17T23:56:19.858Z,10.41
2022-10-17T23:58:48.465Z,10.34
